• Join FlightAware (Why Join?)
  • Login
  • US Flag 
09:19AM EDT


 

Airport Tracker/Info


-or-


 

Live Flight TrackerFlight Track Log ✈ N444CW ✈ 12-May-2013 ✈ KILM - KRDU

Flight Track Log - Related Links

Times and Time Zones

All times are in EDT time to prevent confusion due to time zone crossing. See the N444CW flight status page for this flight to view local times or setup timezone preferences in your user account.

Time Position Orientation Groundspeed Altitude Reporting Facility
EDT Latitude Longitude Course Direction KTS MPH feet Rate Location/Type
01:28AM 34.2900 -77.9750 340° North 300 345 3,900  Level Washington Center
01:29AM 34.3519 -78.0019 340° North 239 275 6,500 2,400 Climbing Washington Center
01:30AM 34.4200 -78.0417 334° Northwest 252 290 8,900 1,680 Climbing Washington Center
01:31AM 34.5089 -78.0794 341° North 296 341 9,900 540 Climbing Washington Center
01:32AM 34.5975 -78.1353 333° Northwest 326 375 10,000  Climbing Washington Center
01:33AM 34.6928 -78.1736 342° North 346 398 9,900 -60 Descending Washington Center
01:34AM 34.7856 -78.2244 336° Northwest 358 412 9,900  Level Washington Center
01:35AM 34.8722 -78.2678 338° Northwest 363 418 9,900  Level Washington Center
01:36AM 34.9672 -78.3117 339° North 363 418 10,000  Climbing Washington Center
01:37AM 35.0578 -78.3653 334° Northwest 368 423 9,900 -60 Descending Washington Center
01:38AM 35.1528 -78.4092 339° North 368 423 9,900  Level Washington Center
01:39AM 35.2453 -78.4608 335° Northwest 363 418 10,000  Climbing Washington Center
01:40AM 35.3361 -78.5072 337° Northwest 358 412 9,900 -60 Descending Washington Center
01:41AM 35.4081 -78.5456 337° Northwest 362 417 9,900  Level Washington Center
01:41AM 35.4392 -78.5569 343° North 358 412 9,900  Level Washington Center
01:42AM 35.5111 -78.6006 334° Northwest 361 415 9,900 -600 Level Washington Center
01:43AM 35.5983 -78.6164 352° North 307 353 8,900 -1,560 Descending Washington Center
01:44AM 35.6817 -78.6222 357° North 282 325 6,800 -1,860 Descending Washington Center
01:45AM 35.7567 -78.6278 357° North 263 303 5,200 -1,260 Descending Washington Center
01:46AM 35.8211 -78.6353 355° North 230 265 4,300 -1,020 Descending Washington Center
01:47AM 35.8789 -78.6606 340° North 196 226 3,200 -1,080 Descending Washington Center
01:48AM 35.9111 -78.7106 309° West 169 194 2,200 -1,080 Descending Washington Center
01:49AM 35.8994 -78.7536 252° West 118 136 1,100 -720 Descending Washington Center
01:50AM 35.8922 -78.7919 257° West 117 135 700 -360 Descending Washington Center
01:52AM 35.8776 -78.7875 180° South  Level Estimated